Time;durP1;ratioP1;P1;durP2;ratioP2;P2;SDS_P1;SDS_P2;PMS_P1;PMS_P2;Temp;Humidity;BMP_temperature;BMP_pressure;BME280_temperature;BME280_humidity;BME280_pressure;Samples;Min_cycle;Max_cycle;Signal;HPM_P1;HPM_P2
2021/10/04 00:00:43;;;;;;;19.47;10.70;;;11.20;99.90;;;;;;4393573;32;20410;-68
2021/10/04 00:04:12;;;;;;;18.73;10.93;;;11.20;99.90;;;;;;4395016;32;20200;-68
2021/10/04 00:06:50;;;;;;;18.37;10.57;;;11.20;99.90;;;;;;4388725;32;20461;-69
2021/10/04 00:09:39;;;;;;;19.37;10.13;;;11.20;99.90;;;;;;4394912;32;20436;-68
2021/10/04 00:12:15;;;;;;;20.93;10.43;;;11.10;99.90;;;;;;4394310;32;20170;-70
2021/10/04 00:15:01;;;;;;;17.10;10.37;;;11.20;99.90;;;;;;4395015;32;20428;-69
2021/10/04 00:17:34;;;;;;;19.10;10.70;;;11.20;99.90;;;;;;4395010;32;20162;-69
2021/10/04 00:20:47;;;;;;;16.30;10.57;;;11.20;99.90;;;;;;4393198;32;20426;-69
2021/10/04 00:23:36;;;;;;;17.03;10.33;;;11.20;99.90;;;;;;4394645;32;20179;-69
2021/10/04 00:29:39;;;;;;;17.07;10.63;;;11.20;99.90;;;;;;4318635;33;20552;-69
2021/10/04 00:32:42;;;;;;;17.47;10.93;;;11.10;99.90;;;;;;4306742;33;20199;-69
2021/10/04 00:35:23;;;;;;;19.73;10.50;;;11.10;99.90;;;;;;4326210;33;20171;-68
2021/10/04 00:38:05;;;;;;;17.27;10.57;;;11.10;99.90;;;;;;4331009;33;20274;-68
2021/10/04 00:41:01;;;;;;;18.00;10.33;;;11.10;99.90;;;;;;4331845;33;20145;-68
2021/10/04 00:43:40;;;;;;;15.10;10.53;;;11.10;99.90;;;;;;4334001;33;20179;-69
2021/10/04 00:46:22;;;;;;;17.03;10.33;;;11.00;99.90;;;;;;4334104;33;20215;-68
2021/10/04 00:48:56;;;;;;;17.37;10.10;;;11.10;99.90;;;;;;4335488;33;20171;-68
2021/10/04 00:51:36;;;;;;;18.63;10.53;;;11.00;99.90;;;;;;4371342;32;20155;-68
2021/10/04 00:54:20;;;;;;;19.00;10.33;;;11.10;99.90;;;;;;4378125;32;20187;-68
2021/10/04 00:57:02;;;;;;;19.70;10.40;;;11.10;99.90;;;;;;4378128;32;20197;-68
2021/10/04 00:59:44;;;;;;;17.47;10.10;;;11.00;99.90;;;;;;4378065;32;20204;-68
2021/10/04 01:05:21;;;;;;;16.63;10.70;;;11.10;99.90;;;;;;4370164;32;20199;-68
2021/10/04 01:08:08;;;;;;;18.53;10.23;;;11.10;99.90;;;;;;4397256;32;20131;-69
2021/10/04 01:10:51;;;;;;;15.87;9.90;;;11.20;99.90;;;;;;4395557;32;20205;-68
2021/10/04 01:13:30;;;;;;;17.77;9.67;;;11.20;99.90;;;;;;4396774;32;20406;-68
2021/10/04 01:16:16;;;;;;;16.13;9.73;;;11.20;99.90;;;;;;4395230;32;20144;-68
2021/10/04 01:18:59;;;;;;;16.47;9.63;;;11.30;99.90;;;;;;4396537;32;20132;-68
2021/10/04 01:21:44;;;;;;;16.27;9.97;;;11.30;99.90;;;;;;4395215;32;20453;-68
2021/10/04 01:24:25;;;;;;;15.57;10.07;;;11.30;99.90;;;;;;4394907;32;20242;-68
2021/10/04 01:26:56;;;;;;;15.63;9.90;;;11.30;99.90;;;;;;4394684;32;20573;-68
2021/10/04 01:29:42;;;;;;;17.30;9.77;;;11.30;99.90;;;;;;4396899;32;20643;-68
2021/10/04 01:32:28;;;;;;;18.20;9.83;;;11.40;99.90;;;;;;4395682;32;20188;-68
2021/10/04 01:34:59;;;;;;;15.70;9.63;;;11.40;99.90;;;;;;4397563;32;20151;-69
2021/10/04 01:38:02;;;;;;;16.27;9.57;;;11.50;99.90;;;;;;4420837;32;20151;-68
2021/10/04 01:40:49;;;;;;;16.07;9.83;;;11.50;99.90;;;;;;4411833;32;20414;-68
2021/10/04 01:43:23;;;;;;;17.53;9.53;;;11.60;99.90;;;;;;4410113;32;20205;-68
2021/10/04 01:45:57;;;;;;;17.30;9.73;;;11.60;99.90;;;;;;4410122;32;20142;-68
2021/10/04 01:48:55;;;;;;;17.10;9.97;;;11.60;99.90;;;;;;4409967;32;20135;-68
2021/10/04 01:51:31;;;;;;;14.83;9.63;;;11.60;99.90;;;;;;4411255;32;20146;-67
2021/10/04 01:54:07;;;;;;;14.87;10.10;;;11.60;99.90;;;;;;4410011;32;20184;-68
2021/10/04 01:56:51;;;;;;;18.47;9.03;;;11.60;99.90;;;;;;4409364;32;20515;-68
2021/10/04 01:59:20;;;;;;;19.50;9.50;;;11.70;99.90;;;;;;4409763;32;20136;-69
2021/10/04 02:02:03;;;;;;;14.93;9.90;;;11.70;99.90;;;;;;4411306;32;20161;-68
2021/10/04 02:04:45;;;;;;;13.30;8.63;;;11.70;99.90;;;;;;4410993;32;20205;-69
2021/10/04 02:07:27;;;;;;;15.77;9.87;;;11.70;99.90;;;;;;4411681;32;20444;-67
2021/10/04 02:10:00;;;;;;;18.77;9.80;;;11.70;99.90;;;;;;4409842;32;20135;-68
2021/10/04 02:12:41;;;;;;;14.87;9.13;;;11.70;99.90;;;;;;4410642;32;20563;-68
2021/10/04 02:15:21;;;;;;;17.70;9.57;;;11.80;99.90;;;;;;4410668;32;20162;-68
2021/10/04 02:18:08;;;;;;;16.43;9.60;;;11.80;99.90;;;;;;4409374;32;20225;-68
2021/10/04 02:20:48;;;;;;;16.03;9.67;;;11.80;99.90;;;;;;4411089;32;20222;-69
2021/10/04 02:23:23;;;;;;;15.27;9.20;;;11.80;99.90;;;;;;4409289;32;20151;-68
2021/10/04 02:25:59;;;;;;;15.07;9.60;;;11.80;99.90;;;;;;4410440;32;20372;-69
2021/10/04 02:28:40;;;;;;;14.77;9.30;;;11.80;99.90;;;;;;4409411;32;20210;-68
2021/10/04 02:31:25;;;;;;;15.97;9.73;;;11.90;99.90;;;;;;4410072;32;20230;-69
2021/10/04 02:34:11;;;;;;;15.67;9.40;;;11.90;99.90;;;;;;4409099;32;20146;-69
2021/10/04 02:36:53;;;;;;;16.73;9.10;;;11.90;99.90;;;;;;4409851;32;20135;-68
2021/10/04 02:39:30;;;;;;;15.40;9.23;;;11.90;99.90;;;;;;4410623;32;20163;-69
2021/10/04 02:42:02;;;;;;;16.40;9.60;;;11.90;99.90;;;;;;4409067;32;20474;-69
2021/10/04 02:44:36;;;;;;;13.77;9.33;;;11.90;99.90;;;;;;4409101;32;20174;-68
2021/10/04 02:47:42;;;;;;;16.57;9.60;;;11.90;99.90;;;;;;4410936;32;20196;-69
2021/10/04 02:50:24;;;;;;;16.00;8.87;;;11.90;99.90;;;;;;4409866;32;20152;-69
2021/10/04 02:53:04;;;;;;;16.10;9.23;;;11.90;99.90;;;;;;4415503;32;20173;-68
2021/10/04 02:55:45;;;;;;;13.27;8.93;;;12.00;99.90;;;;;;4408778;32;20189;-68
2021/10/04 02:58:33;;;;;;;16.20;9.50;;;12.00;99.90;;;;;;4417265;32;20210;-68
2021/10/04 03:01:17;;;;;;;17.47;9.13;;;12.00;99.90;;;;;;4425788;32;20195;-68
2021/10/04 03:04:09;;;;;;;13.83;8.50;;;12.00;99.90;;;;;;4423892;32;20233;-68
2021/10/04 03:06:51;;;;;;;14.70;9.30;;;12.00;99.90;;;;;;4423294;32;20171;-69
2021/10/04 03:09:27;;;;;;;14.67;9.23;;;12.00;99.90;;;;;;4423881;32;20192;-68
2021/10/04 03:12:10;;;;;;;16.27;9.33;;;12.00;99.90;;;;;;4425287;32;20411;-68
2021/10/04 03:14:52;;;;;;;14.40;9.13;;;11.90;99.90;;;;;;4423813;32;20187;-69
2021/10/04 03:17:32;;;;;;;13.90;9.23;;;12.00;99.90;;;;;;4425412;32;20162;-69
2021/10/04 03:20:34;;;;;;;;;;;;;;;;;;;;;
2021/10/04 03:23:26;;;;;;;14.47;8.77;;;12.00;99.90;;;;;;4420483;32;20139;-68
2021/10/04 03:26:01;;;;;;;16.30;9.07;;;12.00;99.90;;;;;;4410973;32;20518;-68
2021/10/04 03:28:42;;;;;;;15.73;9.17;;;12.00;99.90;;;;;;4406778;32;20198;-68
2021/10/04 03:31:21;;;;;;;16.17;8.87;;;12.00;99.90;;;;;;4408558;32;20164;-67
2021/10/04 03:34:06;;;;;;;16.60;9.40;;;12.00;99.90;;;;;;4410393;32;20131;-69
2021/10/04 03:36:42;;;;;;;14.13;9.00;;;12.10;99.90;;;;;;4377989;32;20143;-69
2021/10/04 03:39:28;;;;;;;15.30;9.10;;;12.00;99.90;;;;;;4378070;32;20230;-69
2021/10/04 03:42:18;;;;;;;14.13;9.00;;;12.00;99.90;;;;;;4378198;32;20140;-69
2021/10/04 03:44:52;;;;;;;13.07;8.70;;;12.00;99.90;;;;;;4378126;32;20215;-69
2021/10/04 03:47:32;;;;;;;14.43;8.93;;;12.00;99.90;;;;;;4377654;32;20427;-69
2021/10/04 03:50:33;;;;;;;14.17;8.90;;;12.00;99.90;;;;;;4378530;32;20213;-69
2021/10/04 03:53:19;;;;;;;13.10;9.00;;;12.00;99.90;;;;;;4378112;32;20159;-69
2021/10/04 03:55:59;;;;;;;13.57;8.43;;;12.00;99.90;;;;;;4377903;32;20152;-69
2021/10/04 03:58:56;;;;;;;15.50;8.93;;;12.00;99.90;;;;;;4378407;32;20128;-69
2021/10/04 04:01:37;;;;;;;14.40;8.77;;;12.00;99.90;;;;;;4377424;32;20172;-69
2021/10/04 04:04:22;;;;;;;14.07;8.97;;;12.00;99.90;;;;;;4378133;32;20454;-69
2021/10/04 04:07:13;;;;;;;13.03;8.43;;;12.00;99.90;;;;;;4380000;32;20125;-69
2021/10/04 04:10:16;;;;;;;16.27;8.60;;;12.00;99.90;;;;;;4378139;32;20470;-69
2021/10/04 04:12:53;;;;;;;14.27;8.73;;;11.90;99.90;;;;;;4332649;33;20144;-69
2021/10/04 04:15:32;;;;;;;13.30;9.00;;;11.90;99.90;;;;;;4333254;33;20471;-69
2021/10/04 04:18:16;;;;;;;15.50;9.33;;;11.90;99.90;;;;;;4333127;33;20212;-69
2021/10/04 04:21:14;;;;;;;16.50;9.30;;;11.80;99.90;;;;;;4334337;33;20558;-69
2021/10/04 04:23:51;;;;;;;14.57;9.33;;;11.80;99.90;;;;;;4335009;33;20373;-68
2021/10/04 04:26:20;;;;;;;14.70;9.60;;;11.80;99.90;;;;;;4333744;33;20210;-68
2021/10/04 04:29:02;;;;;;;18.33;9.40;;;11.80;99.90;;;;;;4333737;33;20225;-68
2021/10/04 04:31:43;;;;;;;19.27;9.00;;;11.80;99.90;;;;;;4333920;33;20145;-69
2021/10/04 04:34:28;;;;;;;16.27;9.00;;;11.80;99.90;;;;;;4331867;33;20476;-68
2021/10/04 04:37:17;;;;;;;16.90;9.70;;;11.80;99.90;;;;;;4311183;33;20507;-68
2021/10/04 04:39:51;;;;;;;16.97;9.17;;;11.80;99.90;;;;;;4319146;33;20145;-68
2021/10/04 04:42:26;;;;;;;14.23;9.23;;;11.80;99.90;;;;;;4320516;33;20249;-68
2021/10/04 04:45:46;;;;;;;15.60;9.10;;;11.70;99.90;;;;;;4320889;33;20216;-68
2021/10/04 04:48:29;;;;;;;14.57;9.67;;;11.70;99.90;;;;;;4290865;33;20188;-68
2021/10/04 04:51:15;;;;;;;13.43;9.03;;;11.70;99.90;;;;;;4349617;33;20361;-69
2021/10/04 04:53:58;;;;;;;14.70;9.40;;;11.70;99.90;;;;;;4350319;33;20530;-68
2021/10/04 04:56:41;;;;;;;15.33;9.33;;;11.60;99.90;;;;;;4350139;33;20195;-68
2021/10/04 04:59:24;;;;;;;14.50;9.70;;;11.70;99.90;;;;;;4350272;33;20155;-69
2021/10/04 05:02:11;;;;;;;13.07;8.70;;;11.70;99.90;;;;;;4348573;33;20171;-68
2021/10/04 05:05:08;;;;;;;14.53;9.10;;;11.70;99.90;;;;;;4348206;33;20432;-68
2021/10/04 05:07:43;;;;;;;18.13;9.53;;;11.80;99.90;;;;;;4350066;33;20163;-68
2021/10/04 05:10:31;;;;;;;13.60;9.57;;;11.80;99.90;;;;;;4348463;33;20194;-69
2021/10/04 05:13:28;;;;;;;13.53;9.07;;;11.90;99.90;;;;;;4347983;33;20148;-69
2021/10/04 05:16:15;;;;;;;14.87;8.80;;;11.90;99.90;;;;;;4337642;33;20153;-68
2021/10/04 05:18:42;;;;;;;15.57;8.67;;;11.90;99.90;;;;;;4348369;33;20264;-68
2021/10/04 05:21:24;;;;;;;15.80;8.90;;;11.90;99.90;;;;;;4349720;33;20149;-69
2021/10/04 05:24:13;;;;;;;13.23;8.43;;;12.00;99.90;;;;;;4374948;32;20201;-68
2021/10/04 05:27:11;;;;;;;13.47;9.17;;;12.00;99.90;;;;;;4393635;32;20159;-69
2021/10/04 05:29:46;;;;;;;13.50;8.57;;;12.00;99.90;;;;;;4391352;32;20139;-69
2021/10/04 05:32:22;;;;;;;17.53;9.17;;;12.00;99.90;;;;;;4396604;32;20207;-68
2021/10/04 05:35:08;;;;;;;14.70;8.83;;;12.10;99.90;;;;;;4401556;32;20140;-68
2021/10/04 05:37:56;;;;;;;15.57;9.10;;;12.20;99.90;;;;;;4362542;32;20179;-68
2021/10/04 05:40:43;;;;;;;15.37;8.80;;;12.30;99.90;;;;;;4362910;32;20352;-68
2021/10/04 05:43:23;;;;;;;14.37;8.50;;;12.30;99.90;;;;;;4364385;32;20210;-68
2021/10/04 05:46:15;;;;;;;15.77;8.90;;;12.30;99.90;;;;;;4362403;33;20247;-68
2021/10/04 05:48:58;;;;;;;13.37;8.47;;;12.30;99.90;;;;;;4362617;33;20175;-68
2021/10/04 05:51:49;;;;;;;14.03;8.87;;;12.30;99.90;;;;;;4361809;32;20387;-68
2021/10/04 05:54:27;;;;;;;13.73;8.87;;;12.30;99.90;;;;;;4363391;32;20481;-68
2021/10/04 06:00:29;;;;;;;15.10;8.67;;;12.20;99.90;;;;;;4363029;32;20172;-69
2021/10/04 06:03:02;;;;;;;18.47;8.83;;;12.30;99.90;;;;;;4411197;32;20437;-69
2021/10/04 06:05:29;;;;;;;18.10;8.50;;;12.30;99.90;;;;;;4424429;32;20548;-68
2021/10/04 06:08:12;;;;;;;15.50;8.40;;;12.30;99.90;;;;;;4426391;32;20123;-68
2021/10/04 06:10:48;;;;;;;14.10;8.53;;;12.20;99.90;;;;;;4426391;32;20124;-67
2021/10/04 06:13:57;;;;;;;14.57;8.63;;;12.20;99.90;;;;;;4426346;32;20131;-69
2021/10/04 06:16:35;;;;;;;18.00;8.53;;;12.20;99.90;;;;;;4425583;32;20162;-68
2021/10/04 06:19:06;;;;;;;15.27;8.90;;;12.20;99.90;;;;;;4424736;32;20143;-69
2021/10/04 06:21:42;;;;;;;15.00;9.13;;;12.20;99.90;;;;;;4423737;32;20135;-69
2021/10/04 06:24:21;;;;;;;14.80;8.30;;;12.30;99.90;;;;;;4423005;32;20410;-70
2021/10/04 06:27:04;;;;;;;16.73;8.57;;;12.40;99.90;;;;;;4420696;32;20200;-70
2021/10/04 06:29:55;;;;;;;13.67;8.17;;;12.40;99.90;;;;;;4423579;32;20171;-68
2021/10/04 06:32:34;;;;;;;14.97;7.77;;;12.40;99.90;;;;;;4423513;32;20192;-71
2021/10/04 06:35:23;;;;;;;17.17;8.83;;;12.40;99.90;;;;;;4424858;32;20146;-69
2021/10/04 06:38:19;;;;;;;13.13;8.20;;;12.40;99.90;;;;;;4422101;32;20206;-68
2021/10/04 06:41:09;;;;;;;15.10;8.80;;;12.40;99.90;;;;;;4377752;32;20152;-69
2021/10/04 06:43:50;;;;;;;15.27;9.40;;;12.60;99.90;;;;;;4374951;32;20647;-69
2021/10/04 06:46:26;;;;;;;17.40;9.03;;;12.60;99.90;;;;;;4376795;32;20144;-68
2021/10/04 06:49:15;;;;;;;12.63;8.43;;;12.70;99.90;;;;;;4376940;32;20487;-69
2021/10/04 06:52:04;;;;;;;13.87;7.87;;;12.80;99.90;;;;;;4346213;33;20157;-69
2021/10/04 06:54:49;;;;;;;15.00;7.77;;;12.90;99.90;;;;;;4346998;33;20153;-68
2021/10/04 06:57:39;;;;;;;16.17;7.83;;;13.00;99.90;;;;;;4346719;33;20227;-69
2021/10/04 07:00:20;;;;;;;13.47;7.60;;;13.10;99.90;;;;;;4348218;33;20215;-69
2021/10/04 07:03:10;;;;;;;16.07;7.70;;;13.20;99.90;;;;;;4347522;33;20149;-70
2021/10/04 07:06:04;;;;;;;15.57;7.97;;;13.30;99.90;;;;;;4342677;33;20153;-70
2021/10/04 07:08:44;;;;;;;12.63;7.77;;;13.40;99.90;;;;;;4341565;32;20624;-69
2021/10/04 07:11:24;;;;;;;13.73;7.77;;;13.50;99.90;;;;;;4362253;32;20168;-69
2021/10/04 07:17:10;;;;;;;14.87;8.20;;;13.70;99.90;;;;;;4332504;33;20153;-70
2021/10/04 07:20:06;;;;;;;13.67;7.70;;;13.90;99.90;;;;;;4303539;33;20298;-70
2021/10/04 07:22:49;;;;;;;12.00;7.30;;;14.00;99.90;;;;;;4302671;33;20156;-69
2021/10/04 07:25:33;;;;;;;11.13;6.80;;;14.10;99.90;;;;;;4301081;33;20208;-69
2021/10/04 07:28:14;;;;;;;12.93;7.20;;;14.10;99.90;;;;;;4303286;33;20242;-68
2021/10/04 07:30:44;;;;;;;11.30;7.03;;;14.30;99.90;;;;;;4303197;33;20143;-68
2021/10/04 07:33:26;;;;;;;13.40;7.37;;;14.40;99.90;;;;;;4302625;33;20331;-69
2021/10/04 07:36:12;;;;;;;12.03;7.37;;;14.50;99.90;;;;;;4302242;33;20203;-68
2021/10/04 07:38:46;;;;;;;13.47;7.10;;;14.60;99.90;;;;;;4302843;33;20212;-69
2021/10/04 07:41:39;;;;;;;13.27;7.00;;;14.70;99.90;;;;;;4303053;33;20223;-68
2021/10/04 07:44:24;;;;;;;15.10;7.50;;;14.90;99.90;;;;;;4317447;33;20226;-68
2021/10/04 07:47:01;;;;;;;11.67;6.50;;;14.90;99.90;;;;;;4318119;33;20400;-69
2021/10/04 07:49:45;;;;;;;11.20;6.73;;;15.00;99.90;;;;;;4317200;33;20148;-68
2021/10/04 07:52:24;;;;;;;12.60;7.33;;;15.10;99.90;;;;;;4320052;33;20149;-69
2021/10/04 07:55:00;;;;;;;9.80;6.70;;;15.30;99.90;;;;;;4363923;32;20186;-69
2021/10/04 07:57:31;;;;;;;12.27;6.90;;;15.40;99.90;;;;;;4395648;32;20159;-69
2021/10/04 08:00:23;;;;;;;12.20;6.43;;;15.60;99.90;;;;;;4413264;32;20173;-68
2021/10/04 08:03:18;;;;;;;11.40;6.47;;;16.10;99.90;;;;;;4413331;32;20161;-68
2021/10/04 08:05:55;;;;;;;12.73;6.90;;;16.60;99.90;;;;;;4412124;32;20142;-69
2021/10/04 08:08:45;;;;;;;13.17;6.53;;;17.10;99.90;;;;;;4411334;32;20227;-69
2021/10/04 08:11:21;;;;;;;11.27;6.40;;;17.50;99.90;;;;;;4411439;32;20132;-68
2021/10/04 08:14:10;;;;;;;10.50;5.93;;;17.90;99.90;;;;;;4412610;32;20407;-68
2021/10/04 08:16:48;;;;;;;11.53;6.30;;;18.20;99.90;;;;;;4421098;32;20491;-68
2021/10/04 08:19:22;;;;;;;11.27;6.30;;;18.80;99.90;;;;;;4411303;32;20159;-69
2021/10/04 08:22:00;;;;;;;10.17;6.57;;;18.80;99.90;;;;;;4412048;32;20140;-69
2021/10/04 08:24:34;;;;;;;12.70;6.27;;;19.10;99.90;;;;;;4411210;32;20155;-66
2021/10/04 08:27:07;;;;;;;8.93;6.10;;;19.50;99.90;;;;;;4411198;32;20212;-66
2021/10/04 08:30:18;;;;;;;9.33;5.77;;;19.70;99.90;;;;;;4412928;32;20123;-65
2021/10/04 08:33:11;;;;;;;9.97;5.80;;;20.00;99.90;;;;;;4333882;33;20215;-66
2021/10/04 08:35:59;;;;;;;10.77;5.67;;;20.20;99.90;;;;;;4333941;33;20137;-66
2021/10/04 08:38:35;;;;;;;8.70;6.10;;;20.30;99.90;;;;;;4335467;33;20145;-66
2021/10/04 08:41:25;;;;;;;10.60;5.97;;;20.60;99.90;;;;;;4333529;33;20149;-65
2021/10/04 08:43:54;;;;;;;9.33;5.90;;;20.80;99.90;;;;;;4333811;33;20208;-66
2021/10/04 08:46:25;;;;;;;8.33;5.50;;;21.10;99.90;;;;;;4334258;33;20181;-66
2021/10/04 08:49:03;;;;;;;8.83;5.50;;;21.40;99.90;;;;;;4340163;33;20148;-66
2021/10/04 08:51:40;;;;;;;9.77;6.10;;;21.70;99.90;;;;;;4333680;33;20191;-66
2021/10/04 08:54:34;;;;;;;9.30;5.90;;;22.10;99.90;;;;;;4335272;33;20188;-66
2021/10/04 08:57:05;;;;;;;9.87;5.90;;;22.30;99.90;;;;;;4333575;33;20244;-65
2021/10/04 08:59:42;;;;;;;10.43;5.77;;;22.50;99.90;;;;;;4335167;33;20203;-65
2021/10/04 09:02:33;;;;;;;9.67;6.10;;;22.70;99.90;;;;;;4334948;33;20187;-65
2021/10/04 09:05:44;;;;;;;13.20;6.03;;;22.90;99.90;;;;;;4335077;33;20179;-65
2021/10/04 09:08:26;;;;;;;8.63;5.57;;;23.30;99.90;;;;;;4335092;33;20523;-66
2021/10/04 09:11:11;;;;;;;9.40;5.67;;;23.40;99.90;;;;;;4407977;32;20187;-66
2021/10/04 09:13:50;;;;;;;11.60;5.90;;;23.80;99.90;;;;;;4412016;32;20127;-66
2021/10/04 09:16:53;;;;;;;9.50;6.10;;;24.10;99.90;;;;;;4411945;32;20135;-66
2021/10/04 09:19:47;;;;;;;10.07;6.07;;;24.20;99.90;;;;;;4411880;32;20210;-65
2021/10/04 09:22:36;;;;;;;8.87;6.30;;;24.40;99.90;;;;;;4410751;32;20238;-66
2021/10/04 09:25:49;;;;;;;11.70;6.17;;;24.60;99.90;;;;;;4411733;32;20162;-66
2021/10/04 09:28:39;;;;;;;11.07;6.50;;;24.80;99.90;;;;;;4411641;32;20189;-66
2021/10/04 09:31:39;;;;;;;8.05;5.97;;;25.10;98.50;;;;;;4411692;32;20508;-67
2021/10/04 09:34:31;;;;;;;8.05;5.78;;;25.40;97.30;;;;;;4411721;32;20445;-66
2021/10/04 09:37:06;;;;;;;11.10;6.03;;;25.50;96.70;;;;;;4410505;32;20186;-66
2021/10/04 09:40:00;;;;;;;10.02;5.97;;;25.80;96.20;;;;;;4413574;32;20174;-67
2021/10/04 09:42:39;;;;;;;9.18;5.60;;;26.20;95.00;;;;;;4415811;32;20135;-65
2021/10/04 09:45:14;;;;;;;10.32;6.47;;;26.40;94.10;;;;;;4410797;32;20318;-66
2021/10/04 09:48:20;;;;;;;10.45;6.00;;;26.50;93.10;;;;;;4411876;32;20167;-66
2021/10/04 09:50:57;;;;;;;8.00;6.12;;;26.70;92.20;;;;;;4333267;33;20145;-65
2021/10/04 09:54:11;;;;;;;12.98;6.07;;;26.90;91.10;;;;;;4334263;33;20211;-66
2021/10/04 09:57:21;;;;;;;11.63;6.43;;;26.60;90.80;;;;;;4275550;33;20169;-65
2021/10/04 10:00:07;;;;;;;8.38;6.18;;;26.10;91.40;;;;;;4275004;33;20197;-65
2021/10/04 10:03:12;;;;;;;11.90;6.12;;;26.30;91.70;;;;;;4276231;33;20425;-65
2021/10/04 10:05:52;;;;;;;10.45;6.00;;;26.80;90.90;;;;;;4275932;33;20176;-67
2021/10/04 10:08:48;;;;;;;10.02;5.80;;;27.30;90.10;;;;;;4272460;33;20200;-66
2021/10/04 10:11:40;;;;;;;7.43;5.72;;;27.50;87.80;;;;;;4273638;33;20183;-66
2021/10/04 10:14:36;;;;;;;8.95;5.65;;;27.50;87.00;;;;;;4274584;33;20486;-66
2021/10/04 10:17:18;;;;;;;9.70;6.18;;;27.80;85.00;;;;;;4275929;33;20170;-67
2021/10/04 10:20:06;;;;;;;8.70;6.32;;;28.00;84.80;;;;;;4288883;33;20141;-65
2021/10/04 10:22:51;;;;;;;8.73;6.22;;;28.10;83.00;;;;;;4332556;33;20149;-66
2021/10/04 10:25:48;;;;;;;8.32;6.10;;;28.30;82.20;;;;;;4333200;33;20461;-66
2021/10/04 10:28:36;;;;;;;9.55;6.22;;;28.50;80.70;;;;;;4406636;32;20466;-66
2021/10/04 10:31:09;;;;;;;9.82;5.85;;;28.40;79.00;;;;;;4410371;32;20132;-66
2021/10/04 10:33:54;;;;;;;12.80;6.00;;;28.50;79.40;;;;;;4410888;32;20469;-66
2021/10/04 10:37:16;;;;;;;12.15;6.00;;;28.70;78.70;;;;;;4409971;32;20140;-65
2021/10/04 10:40:19;;;;;;;9.27;5.70;;;29.00;77.10;;;;;;4347290;33;20176;-66
2021/10/04 10:43:12;;;;;;;10.60;6.07;;;29.40;75.60;;;;;;4346608;33;20160;-66
2021/10/04 10:45:48;;;;;;;9.32;5.70;;;29.70;74.50;;;;;;4347947;33;20247;-66
2021/10/04 10:48:35;;;;;;;8.27;6.12;;;29.90;73.40;;;;;;4346671;33;20690;-67
2021/10/04 10:51:24;;;;;;;9.52;6.03;;;29.90;72.50;;;;;;4346283;33;20206;-67
2021/10/04 10:53:55;;;;;;;10.55;6.12;;;29.90;71.90;;;;;;4355562;32;20421;-66
2021/10/04 10:56:22;;;;;;;7.68;5.72;;;29.70;72.30;;;;;;4347914;32;20566;-66
2021/10/04 10:58:49;;;;;;;10.27;6.00;;;29.90;71.80;;;;;;4348211;33;20148;-66
2021/10/04 11:01:16;;;;;;;7.68;5.68;;;30.00;70.50;;;;;;4347765;33;20145;-66
2021/10/04 11:03:46;;;;;;;12.07;6.30;;;30.00;69.90;;;;;;4347248;33;20170;-66
2021/10/04 11:06:13;;;;;;;10.68;5.95;;;29.90;70.50;;;;;;4345937;33;20144;-65
2021/10/04 11:08:42;;;;;;;7.47;5.53;;;29.60;69.80;;;;;;4347488;33;20518;-66
2021/10/04 11:11:19;;;;;;;7.90;5.78;;;29.40;70.50;;;;;;4346579;33;20160;-66
2021/10/04 11:14:21;;;;;;;8.60;5.97;;;29.20;71.10;;;;;;4346022;33;20389;-67
2021/10/04 11:17:05;;;;;;;8.95;5.70;;;29.20;70.50;;;;;;4368110;32;20173;-67
2021/10/04 11:20:10;;;;;;;7.70;5.68;;;29.10;70.40;;;;;;4362495;32;20141;-65
2021/10/04 11:22:40;;;;;;;9.63;5.82;;;29.30;70.90;;;;;;4362234;32;20152;-66
2021/10/04 11:25:12;;;;;;;9.88;5.68;;;29.70;70.80;;;;;;4360490;32;20148;-66
2021/10/04 11:27:49;;;;;;;9.32;5.68;;;30.00;69.50;;;;;;4361724;32;20250;-67
2021/10/04 11:30:27;;;;;;;8.80;5.62;;;30.40;68.30;;;;;;4361246;32;20491;-65
2021/10/04 11:33:13;;;;;;;12.37;5.72;;;31.30;65.10;;;;;;4361115;33;20172;-66
2021/10/04 11:36:14;;;;;;;7.60;5.00;;;32.30;62.60;;;;;;4362444;32;20132;-66
2021/10/04 11:38:58;;;;;;;8.77;5.50;;;32.80;60.70;;;;;;4360947;32;20209;-65
2021/10/04 11:41:28;;;;;;;8.35;5.12;;;32.60;61.00;;;;;;4362468;32;20163;-67
2021/10/04 11:43:58;;;;;;;9.13;5.45;;;32.30;60.50;;;;;;4362162;33;20184;-65
2021/10/04 11:46:28;;;;;;;8.63;5.50;;;31.90;60.00;;;;;;4362727;32;20148;-66
2021/10/04 11:49:22;;;;;;;8.18;5.00;;;31.90;61.20;;;;;;4372549;32;20214;-66
2021/10/04 11:52:06;;;;;;;7.18;5.07;;;32.20;61.20;;;;;;4364822;32;20183;-66
2021/10/04 11:54:35;;;;;;;9.63;5.57;;;32.80;60.40;;;;;;4375227;32;20470;-66
2021/10/04 11:57:05;;;;;;;7.05;5.25;;;33.20;58.90;;;;;;4400046;32;20512;-66
2021/10/04 11:59:59;;;;;;;8.65;5.37;;;33.40;57.90;;;;;;4423435;32;20189;-67
2021/10/04 12:02:37;;;;;;;6.85;5.53;;;33.80;56.60;;;;;;4409600;32;20450;-66
2021/10/04 12:05:22;;;;;;;6.00;5.20;;;33.80;56.30;;;;;;4417589;32;20211;-66
2021/10/04 12:08:07;;;;;;;7.72;5.00;;;33.90;54.80;;;;;;4412365;32;20189;-66
2021/10/04 12:10:42;;;;;;;7.93;5.40;;;34.00;54.70;;;;;;4416811;32;20194;-67
2021/10/04 12:13:14;;;;;;;9.05;5.22;;;33.70;54.30;;;;;;4419657;32;20143;-66
2021/10/04 12:15:41;;;;;;;7.95;5.30;;;33.60;54.80;;;;;;4412140;32;20152;-66
2021/10/04 12:18:22;;;;;;;7.10;4.90;;;33.80;54.30;;;;;;4419402;32;20550;-66
2021/10/04 12:20:51;;;;;;;8.30;5.40;;;33.60;54.10;;;;;;4413704;32;20441;-66
2021/10/04 12:23:20;;;;;;;6.95;5.60;;;33.60;54.30;;;;;;4411850;32;20151;-66
2021/10/04 12:25:49;;;;;;;6.70;5.20;;;33.20;54.70;;;;;;4413944;32;20159;-66
2021/10/04 12:28:18;;;;;;;6.57;5.10;;;33.50;54.50;;;;;;4415109;32;20462;-67
2021/10/04 12:30:52;;;;;;;8.48;5.65;;;33.50;53.80;;;;;;4410248;32;20392;-67
2021/10/04 12:33:47;;;;;;;8.07;5.30;;;33.60;54.10;;;;;;4420961;32;20212;-67
2021/10/04 12:36:15;;;;;;;9.32;5.47;;;33.60;53.90;;;;;;4418229;32;20151;-67
2021/10/04 12:38:57;;;;;;;9.45;5.30;;;33.10;54.60;;;;;;4413003;32;20166;-67
2021/10/04 12:41:40;;;;;;;8.35;5.40;;;32.80;55.10;;;;;;4410233;32;20562;-65
2021/10/04 12:44:18;;;;;;;9.18;5.20;;;32.50;55.90;;;;;;4419124;32;20464;-66
2021/10/04 12:47:03;;;;;;;7.30;5.20;;;32.10;56.50;;;;;;4425432;32;20232;-67
2021/10/04 12:49:31;;;;;;;9.02;5.37;;;31.50;56.80;;;;;;4421130;32;20155;-67
2021/10/04 12:52:03;;;;;;;7.78;5.45;;;31.00;57.50;;;;;;4422832;32;20261;-69
2021/10/04 12:54:35;;;;;;;8.60;5.25;;;30.30;59.20;;;;;;4414200;32;20200;-69
2021/10/04 12:57:03;;;;;;;11.48;5.50;;;29.90;59.80;;;;;;4411501;32;20246;-68
2021/10/04 12:59:32;;;;;;;8.23;5.75;;;29.20;61.50;;;;;;4412098;32;20131;-70
2021/10/04 13:02:01;;;;;;;10.88;5.62;;;28.50;64.30;;;;;;4410302;32;20132;-68
2021/10/04 13:04:38;;;;;;;8.73;6.00;;;27.50;66.30;;;;;;4410439;32;20441;-68
2021/10/04 13:07:07;;;;;;;9.55;5.97;;;27.00;69.20;;;;;;4410558;32;20180;-68
2021/10/04 13:09:34;;;;;;;8.43;6.07;;;26.60;72.10;;;;;;4410541;32;20514;-69
2021/10/04 13:12:05;;;;;;;10.93;6.25;;;26.00;73.30;;;;;;4412679;32;20462;-68
2021/10/04 13:14:32;;;;;;;10.38;6.15;;;25.50;75.20;;;;;;4411956;32;20351;-68
2021/10/04 13:16:59;;;;;;;9.18;6.32;;;25.10;77.30;;;;;;4411849;32;20139;-69
2021/10/04 13:19:27;;;;;;;10.85;6.40;;;24.60;79.40;;;;;;4410254;32;20159;-68
2021/10/04 13:21:53;;;;;;;11.02;6.72;;;24.20;81.20;;;;;;4410116;32;20192;-68
2021/10/04 13:24:20;;;;;;;10.07;6.90;;;24.00;83.20;;;;;;4409713;32;20458;-68
2021/10/04 13:26:47;;;;;;;13.55;7.25;;;23.80;84.80;;;;;;4409499;32;20501;-69
2021/10/04 13:29:16;;;;;;;12.57;7.67;;;23.60;85.70;;;;;;4410708;32;20247;-68
2021/10/04 13:31:43;;;;;;;11.20;7.10;;;23.30;87.80;;;;;;4411174;32;20143;-68
2021/10/04 13:34:12;;;;;;;11.90;7.50;;;23.20;88.40;;;;;;4409562;32;20143;-68
2021/10/04 13:36:39;;;;;;;12.35;7.50;;;23.10;89.00;;;;;;4409576;32;20174;-69
2021/10/04 13:39:08;;;;;;;11.93;6.77;;;23.00;90.00;;;;;;4409805;32;20151;-68
2021/10/04 13:41:35;;;;;;;10.90;7.17;;;22.90;90.30;;;;;;4411444;32;20139;-68
2021/10/04 13:44:02;;;;;;;11.93;7.83;;;22.90;90.80;;;;;;4411425;32;20185;-68
2021/10/04 13:46:29;;;;;;;10.93;7.80;;;22.70;90.90;;;;;;4409487;32;20446;-68
2021/10/04 13:48:56;;;;;;;12.60;8.13;;;22.50;91.40;;;;;;4410532;32;20162;-69
2021/10/04 13:51:24;;;;;;;12.23;7.27;;;22.30;92.20;;;;;;4409291;32;20136;-69
2021/10/04 13:53:51;;;;;;;13.70;7.43;;;22.30;92.90;;;;;;4410221;32;20155;-69
2021/10/04 13:56:20;;;;;;;14.20;8.27;;;22.30;93.30;;;;;;4408301;32;20227;-69
2021/10/04 13:58:47;;;;;;;11.97;8.10;;;22.20;93.50;;;;;;4411049;32;20157;-68
2021/10/04 14:01:14;;;;;;;11.60;7.53;;;22.10;93.90;;;;;;4411073;32;20466;-69
2021/10/04 14:03:41;;;;;;;11.07;7.50;;;22.00;94.30;;;;;;4411233;32;20194;-68
2021/10/04 14:06:08;;;;;;;13.77;7.35;;;22.10;94.90;;;;;;4411554;32;20357;-67
2021/10/04 14:08:35;;;;;;;12.57;7.80;;;22.00;95.20;;;;;;4413640;32;20139;-67